Time;durP1;ratioP1;P1;durP2;ratioP2;P2;SDS_P1;SDS_P2;PMS_P1;PMS_P2;Temp;Humidity;BMP_temperature;BMP_pressure;BME280_temperature;BME280_humidity;BME280_pressure;Samples;Min_cycle;Max_cycle;Signal;HPM_P1;HPM_P2
2022/08/01 00:00:29;;;;;;;7.97;7.57;;;22.40;92.30;;;;;;5011405;28;20521;-58
2022/08/01 00:02:55;;;;;;;8.80;8.20;;;22.30;92.80;;;;;;5012189;28;20182;-57
2022/08/01 00:05:20;;;;;;;8.30;7.70;;;22.30;93.00;;;;;;5026753;28;20207;-58
2022/08/01 00:07:46;;;;;;;8.73;8.10;;;22.20;93.20;;;;;;5010862;28;20523;-58
2022/08/01 00:10:13;;;;;;;8.50;8.00;;;22.10;93.80;;;;;;5014264;28;20185;-58
2022/08/01 00:12:40;;;;;;;8.43;7.93;;;22.10;94.40;;;;;;5013018;28;20285;-55
2022/08/01 00:15:07;;;;;;;8.23;7.80;;;22.00;94.90;;;;;;5021921;28;20544;-57
2022/08/01 00:17:33;;;;;;;7.93;7.50;;;22.00;95.10;;;;;;5020858;28;20862;-58
2022/08/01 00:19:59;;;;;;;9.53;8.63;;;21.90;94.70;;;;;;5020982;28;20440;-59
2022/08/01 00:22:25;;;;;;;8.83;8.23;;;21.80;95.80;;;;;;5019778;28;20286;-58
2022/08/01 00:24:50;;;;;;;8.00;7.53;;;21.80;96.50;;;;;;5029199;28;20204;-58
2022/08/01 00:27:16;;;;;;;8.83;8.33;;;21.80;96.80;;;;;;5020702;28;20198;-58
2022/08/01 00:29:42;;;;;;;8.70;8.20;;;21.70;97.50;;;;;;5023761;28;20185;-58
2022/08/01 00:32:07;;;;;;;8.80;8.30;;;21.70;98.10;;;;;;5010184;28;20189;-59
2022/08/01 00:34:33;;;;;;;8.67;8.17;;;21.70;98.70;;;;;;5013926;28;20291;-58
2022/08/01 00:36:59;;;;;;;8.80;8.20;;;21.60;99.90;;;;;;5022835;28;20193;-59
2022/08/01 00:39:24;;;;;;;8.20;7.70;;;21.60;99.90;;;;;;5014759;28;20438;-59
2022/08/01 00:41:50;;;;;;;9.13;8.53;;;21.60;99.90;;;;;;5023679;28;20241;-58
2022/08/01 00:44:16;;;;;;;7.87;7.27;;;21.60;99.90;;;;;;5010599;28;20192;-59
2022/08/01 00:46:41;;;;;;;8.87;8.03;;;21.50;99.90;;;;;;5015058;28;20190;-59
2022/08/01 00:49:07;;;;;;;9.00;8.50;;;21.50;99.90;;;;;;5015162;28;20198;-58
2022/08/01 00:51:33;;;;;;;9.27;8.57;;;21.60;99.90;;;;;;5012572;28;20197;-58
2022/08/01 00:54:00;;;;;;;8.37;7.87;;;21.60;99.90;;;;;;5008039;28;20443;-58
2022/08/01 00:56:27;;;;;;;8.63;8.03;;;21.60;99.90;;;;;;5004902;28;20533;-58
2022/08/01 00:58:54;;;;;;;8.80;8.20;;;21.50;99.90;;;;;;5020461;28;20893;-59
2022/08/01 01:01:21;;;;;;;8.47;7.97;;;21.50;99.90;;;;;;5010754;28;20474;-58
2022/08/01 01:03:51;;;;;;;7.67;7.27;;;21.40;99.90;;;;;;5013071;28;20911;-58
2022/08/01 01:06:48;;;;;;;8.80;8.20;;;21.30;99.90;;;;;;5011693;28;20537;-59
2022/08/01 01:09:31;;;;;;;8.87;8.03;;;21.20;99.90;;;;;;5013233;28;20513;-57
2022/08/01 01:12:05;;;;;;;8.20;7.70;;;21.10;99.90;;;;;;4999445;28;20879;-59
2022/08/01 01:15:01;;;;;;;9.00;8.50;;;21.00;99.90;;;;;;5022767;28;20433;-58
2022/08/01 01:17:32;;;;;;;9.03;8.40;;;20.80;99.90;;;;;;5013610;28;20905;-57
2022/08/01 01:20:02;;;;;;;9.30;8.60;;;20.70;99.90;;;;;;5024360;28;20427;-57
2022/08/01 01:22:47;;;;;;;8.90;8.33;;;20.60;99.90;;;;;;5009822;28;20473;-57
2022/08/01 01:25:37;;;;;;;8.40;7.90;;;20.60;99.90;;;;;;5002779;28;20418;-57
2022/08/01 01:28:17;;;;;;;8.87;8.30;;;20.50;99.90;;;;;;5011187;28;20863;-57
2022/08/01 01:30:46;;;;;;;9.30;8.70;;;20.40;99.90;;;;;;5010368;28;20441;-58
2022/08/01 01:33:13;;;;;;;8.43;7.93;;;20.40;99.90;;;;;;5025189;28;20446;-59
2022/08/01 01:35:46;;;;;;;8.80;8.30;;;20.30;99.90;;;;;;5010634;28;20462;-58
2022/08/01 01:38:18;;;;;;;9.10;8.50;;;20.20;99.90;;;;;;5014634;28;20904;-57
2022/08/01 01:40:46;;;;;;;9.07;8.40;;;20.10;99.90;;;;;;5012024;28;20438;-57
2022/08/01 01:43:14;;;;;;;8.77;8.17;;;20.10;99.90;;;;;;5020744;28;20973;-58
2022/08/01 01:45:41;;;;;;;9.37;8.87;;;20.20;99.90;;;;;;5023419;28;20439;-58
2022/08/01 01:48:12;;;;;;;8.80;8.20;;;20.00;99.90;;;;;;5022085;28;20899;-58
2022/08/01 01:50:39;;;;;;;8.63;8.03;;;20.00;99.90;;;;;;5020497;28;20484;-58
2022/08/01 01:53:06;;;;;;;8.83;8.27;;;20.00;99.90;;;;;;5018660;28;20435;-57
2022/08/01 01:55:34;;;;;;;9.20;8.60;;;20.00;99.90;;;;;;5015707;28;20977;-58
2022/08/01 01:58:00;;;;;;;8.87;8.37;;;20.00;99.90;;;;;;5025964;28;20540;-58
2022/08/01 02:00:28;;;;;;;9.40;8.80;;;19.90;99.90;;;;;;5008301;28;20516;-59
2022/08/01 02:02:56;;;;;;;9.47;8.73;;;19.90;99.90;;;;;;5013086;28;20466;-58
2022/08/01 02:05:22;;;;;;;8.37;7.87;;;19.90;99.90;;;;;;5015752;28;20932;-58
2022/08/01 02:07:50;;;;;;;9.03;8.23;;;19.90;99.90;;;;;;5020573;28;20450;-58
2022/08/01 02:10:17;;;;;;;8.60;8.10;;;19.90;99.90;;;;;;5010880;28;20445;-58
2022/08/01 02:12:45;;;;;;;9.00;8.30;;;19.90;99.90;;;;;;5017628;28;21419;-58
2022/08/01 02:15:13;;;;;;;8.67;8.17;;;19.80;99.90;;;;;;5018826;28;20441;-58
2022/08/01 02:17:43;;;;;;;8.50;8.00;;;19.80;99.90;;;;;;5029050;28;20907;-58
2022/08/01 02:20:10;;;;;;;8.10;7.50;;;19.70;99.90;;;;;;5024047;28;20465;-59
2022/08/01 02:23:01;;;;;;;8.40;7.90;;;19.80;99.90;;;;;;5023770;28;20469;-56
2022/08/01 02:25:39;;;;;;;8.07;7.57;;;19.80;99.90;;;;;;5017870;28;20496;-59
2022/08/01 02:28:08;;;;;;;9.00;8.50;;;19.90;99.90;;;;;;5020778;28;21030;-59
2022/08/01 02:30:36;;;;;;;8.87;8.27;;;20.00;99.90;;;;;;5019559;28;20451;-55
2022/08/01 02:33:17;;;;;;;8.90;8.20;;;20.00;99.90;;;;;;5009820;28;20426;-59
2022/08/01 02:35:48;;;;;;;9.00;8.40;;;20.10;99.90;;;;;;5017326;28;20429;-58
2022/08/01 02:38:14;;;;;;;8.87;8.20;;;20.10;99.90;;;;;;5030491;28;21272;-58
2022/08/01 02:40:43;;;;;;;9.27;8.57;;;20.20;99.90;;;;;;5021548;28;20448;-59
2022/08/01 02:43:10;;;;;;;8.83;8.13;;;20.20;99.90;;;;;;5016819;28;20443;-55
2022/08/01 02:45:42;;;;;;;8.97;8.47;;;20.20;99.90;;;;;;5011795;28;20445;-58
2022/08/01 02:48:12;;;;;;;8.73;7.93;;;20.40;99.90;;;;;;5011213;28;21231;-59
2022/08/01 02:50:41;;;;;;;9.00;8.30;;;20.40;99.90;;;;;;5009030;28;20457;-59
2022/08/01 02:53:10;;;;;;;8.30;7.80;;;20.30;99.90;;;;;;5010776;28;20419;-58
2022/08/01 02:55:38;;;;;;;8.67;8.07;;;20.40;99.90;;;;;;5015428;28;20572;-58
2022/08/01 02:58:06;;;;;;;9.00;8.40;;;20.40;99.90;;;;;;5030681;28;20425;-57
2022/08/01 03:00:34;;;;;;;9.03;8.53;;;20.40;99.90;;;;;;5016917;28;21027;-56
2022/08/01 03:03:01;;;;;;;10.03;9.33;;;20.30;99.90;;;;;;5009785;28;20770;-58
2022/08/01 03:05:27;;;;;;;9.33;8.73;;;20.30;99.90;;;;;;5010823;28;20467;-58
2022/08/01 03:07:55;;;;;;;9.63;8.93;;;20.30;99.90;;;;;;5016423;28;20445;-58
2022/08/01 03:10:22;;;;;;;9.50;8.80;;;20.30;99.90;;;;;;5008883;28;20442;-58
2022/08/01 03:12:50;;;;;;;10.27;9.27;;;20.20;99.90;;;;;;5008463;28;20496;-58
2022/08/01 03:15:17;;;;;;;9.70;9.10;;;20.10;99.90;;;;;;5005012;28;20444;-59
2022/08/01 03:17:45;;;;;;;9.53;8.83;;;20.20;99.90;;;;;;5018921;28;20450;-59
2022/08/01 03:20:13;;;;;;;9.83;9.20;;;20.10;99.90;;;;;;5009760;28;21005;-58
2022/08/01 03:22:42;;;;;;;9.37;8.67;;;20.20;99.90;;;;;;5009961;28;20461;-59
2022/08/01 03:25:08;;;;;;;9.57;8.97;;;20.10;99.90;;;;;;5010575;28;20447;-59
2022/08/01 03:27:37;;;;;;;9.60;9.00;;;20.20;99.90;;;;;;5022874;28;20771;-58
2022/08/01 03:30:04;;;;;;;9.60;9.00;;;20.20;99.90;;;;;;5014133;28;20449;-59
2022/08/01 03:32:30;;;;;;;10.83;9.93;;;20.20;99.90;;;;;;5014998;28;21329;-56
2022/08/01 03:34:57;;;;;;;10.10;9.40;;;20.10;99.90;;;;;;5027518;28;20465;-59
2022/08/01 03:37:24;;;;;;;9.50;8.80;;;20.20;99.90;;;;;;5018897;28;20438;-59
2022/08/01 03:40:08;;;;;;;9.70;9.00;;;20.20;99.90;;;;;;5013756;28;20442;-59
2022/08/01 03:42:46;;;;;;;9.00;8.30;;;20.20;99.90;;;;;;5008810;28;20470;-59
2022/08/01 03:45:19;;;;;;;9.50;8.90;;;20.20;99.90;;;;;;5019492;28;20528;-56
2022/08/01 03:47:48;;;;;;;9.80;8.90;;;20.30;99.90;;;;;;5021011;28;20471;-58
2022/08/01 03:50:16;;;;;;;10.10;9.47;;;20.30;99.90;;;;;;5021302;28;20450;-59
2022/08/01 03:52:44;;;;;;;9.50;8.90;;;20.30;99.90;;;;;;5018472;28;20439;-59
2022/08/01 03:55:12;;;;;;;9.50;9.00;;;20.30;99.90;;;;;;5013155;28;20917;-59
2022/08/01 03:57:39;;;;;;;8.90;8.30;;;20.30;99.90;;;;;;5014496;28;20451;-59
2022/08/01 04:00:08;;;;;;;9.13;8.63;;;20.30;99.90;;;;;;5021303;28;20985;-59
2022/08/01 04:02:35;;;;;;;8.57;8.07;;;20.30;99.90;;;;;;5008212;28;20481;-59
2022/08/01 04:05:01;;;;;;;8.93;8.40;;;20.30;99.90;;;;;;5022099;28;20840;-58
2022/08/01 04:07:29;;;;;;;9.57;8.80;;;20.30;99.90;;;;;;5034006;28;20445;-60
2022/08/01 04:09:55;;;;;;;8.40;7.90;;;20.30;99.90;;;;;;5013127;28;20433;-59
2022/08/01 04:12:21;;;;;;;8.93;8.30;;;20.40;99.90;;;;;;5017413;28;20944;-59
2022/08/01 04:14:48;;;;;;;9.70;9.10;;;20.30;99.90;;;;;;5025273;28;20442;-56
2022/08/01 04:17:14;;;;;;;11.00;10.10;;;20.30;99.90;;;;;;5018775;28;20441;-61
2022/08/01 04:19:40;;;;;;;10.33;9.63;;;20.40;99.90;;;;;;5015509;28;20485;-60
2022/08/01 04:22:08;;;;;;;8.77;8.23;;;20.40;99.90;;;;;;5009501;28;20988;-59
2022/08/01 04:24:36;;;;;;;9.77;9.07;;;20.30;99.90;;;;;;5017993;28;20204;-59
2022/08/01 04:27:03;;;;;;;10.20;9.50;;;20.30;99.90;;;;;;5008622;28;20958;-59
2022/08/01 04:29:31;;;;;;;9.63;9.00;;;20.30;99.90;;;;;;5018578;28;20421;-58
2022/08/01 04:32:00;;;;;;;10.60;9.90;;;20.30;99.90;;;;;;5009575;28;20438;-55
2022/08/01 04:34:28;;;;;;;9.63;8.93;;;20.20;99.90;;;;;;5009284;28;20438;-59
2022/08/01 04:36:56;;;;;;;11.00;10.10;;;20.20;99.90;;;;;;5007288;28;20441;-58
2022/08/01 04:39:27;;;;;;;9.40;8.70;;;20.20;99.90;;;;;;5015495;28;20452;-58
2022/08/01 04:41:56;;;;;;;10.10;9.40;;;20.20;99.90;;;;;;5008937;28;20960;-59
2022/08/01 04:44:23;;;;;;;10.30;9.60;;;20.30;99.90;;;;;;5016870;28;20418;-59
2022/08/01 04:46:50;;;;;;;10.43;9.73;;;20.40;99.90;;;;;;5011709;28;20438;-58
2022/08/01 04:49:16;;;;;;;9.77;9.17;;;20.40;99.90;;;;;;5005147;28;20450;-59
2022/08/01 04:51:57;;;;;;;9.60;9.00;;;20.50;99.90;;;;;;5024490;28;20863;-57
2022/08/01 04:54:24;;;;;;;9.27;8.67;;;20.50;99.90;;;;;;5021849;28;20438;-55
2022/08/01 04:56:50;;;;;;;9.37;8.30;;;20.60;99.90;;;;;;5021960;28;20498;-57
2022/08/01 05:02:00;;;;;;;9.60;8.80;;;20.70;99.90;;;;;;5009235;28;20212;-57
2022/08/01 05:04:25;;;;;;;10.10;9.40;;;20.80;99.90;;;;;;5002577;28;20824;-57
2022/08/01 05:06:51;;;;;;;9.63;9.03;;;20.80;99.90;;;;;;5013876;28;20183;-56
2022/08/01 05:09:16;;;;;;;9.60;9.00;;;20.90;99.90;;;;;;5020343;28;20201;-56
2022/08/01 05:11:42;;;;;;;9.67;9.03;;;20.90;99.90;;;;;;5013502;28;20287;-58
2022/08/01 05:14:07;;;;;;;9.10;8.40;;;21.00;99.90;;;;;;5019809;28;20192;-56
2022/08/01 05:16:33;;;;;;;10.23;9.40;;;21.10;99.90;;;;;;5011707;28;20195;-55
2022/08/01 05:18:58;;;;;;;8.87;8.17;;;21.20;99.90;;;;;;5012654;28;20188;-57
2022/08/01 05:21:24;;;;;;;8.73;8.13;;;21.20;99.90;;;;;;5010770;28;20216;-58
2022/08/01 05:23:49;;;;;;;8.60;7.90;;;21.30;99.90;;;;;;5016523;28;20688;-57
2022/08/01 05:26:15;;;;;;;8.77;8.10;;;21.40;99.90;;;;;;5014529;28;20664;-56
2022/08/01 05:28:41;;;;;;;8.57;8.07;;;21.40;99.90;;;;;;5016796;28;20636;-58
2022/08/01 05:31:07;;;;;;;8.40;7.90;;;21.50;99.90;;;;;;5017360;28;20191;-50
2022/08/01 05:33:33;;;;;;;8.07;7.47;;;21.50;99.90;;;;;;5012113;28;20486;-57
2022/08/01 05:35:58;;;;;;;8.50;8.00;;;21.40;99.90;;;;;;5030511;28;20179;-57
2022/08/01 05:38:24;;;;;;;8.97;8.30;;;21.40;99.90;;;;;;5025422;28;20188;-55
2022/08/01 05:40:50;;;;;;;7.87;7.23;;;21.40;99.90;;;;;;5025819;28;20184;-57
2022/08/01 05:43:16;;;;;;;7.83;7.23;;;21.40;99.90;;;;;;5012462;28;20193;-55
2022/08/01 05:45:42;;;;;;;7.40;6.90;;;21.50;99.90;;;;;;5010298;28;20177;-57
2022/08/01 05:48:08;;;;;;;7.40;6.90;;;21.60;99.90;;;;;;5007044;28;21353;-59
2022/08/01 05:50:33;;;;;;;7.27;6.80;;;21.80;99.90;;;;;;5014057;28;20233;-57
2022/08/01 05:52:59;;;;;;;7.70;7.20;;;21.90;99.90;;;;;;5011880;28;20425;-52
2022/08/01 05:55:24;;;;;;;7.13;6.63;;;22.20;99.90;;;;;;5013343;28;20186;-58
2022/08/01 05:57:50;;;;;;;7.70;6.80;;;22.30;99.90;;;;;;5012868;28;20212;-56
2022/08/01 06:00:16;;;;;;;7.20;6.70;;;22.40;99.90;;;;;;5008279;28;20238;-56
2022/08/01 06:02:43;;;;;;;7.00;6.50;;;22.40;99.90;;;;;;5010431;28;20652;-56
2022/08/01 06:05:09;;;;;;;6.43;6.03;;;22.40;99.90;;;;;;5010304;28;20499;-58
2022/08/01 06:07:35;;;;;;;6.67;6.27;;;22.60;99.90;;;;;;5020260;28;20416;-56
2022/08/01 06:10:01;;;;;;;7.40;6.83;;;22.70;99.90;;;;;;5003950;28;20923;-58
2022/08/01 06:12:26;;;;;;;6.60;6.20;;;22.90;99.90;;;;;;5020161;28;20540;-58
2022/08/01 06:14:52;;;;;;;6.30;5.90;;;22.80;99.90;;;;;;5024720;28;20270;-56
2022/08/01 06:17:17;;;;;;;6.60;6.10;;;22.80;99.90;;;;;;5029093;28;20178;-58
2022/08/01 06:19:43;;;;;;;6.67;6.27;;;22.60;99.90;;;;;;5026698;28;20273;-57
2022/08/01 06:22:08;;;;;;;6.67;6.10;;;22.60;99.90;;;;;;5017381;28;20225;-58
2022/08/01 06:24:34;;;;;;;6.97;6.57;;;22.50;99.90;;;;;;5013996;28;20208;-58
2022/08/01 06:26:59;;;;;;;6.03;5.63;;;22.40;99.90;;;;;;5005092;28;20199;-57
2022/08/01 06:29:25;;;;;;;6.70;6.20;;;22.50;99.90;;;;;;5007261;28;20286;-56
2022/08/01 06:31:51;;;;;;;6.53;6.13;;;22.50;99.90;;;;;;5011826;28;20190;-57
2022/08/01 06:34:16;;;;;;;6.57;6.17;;;22.40;99.90;;;;;;5007841;28;20191;-58
2022/08/01 06:36:42;;;;;;;6.57;6.00;;;22.40;99.90;;;;;;5009994;28;20194;-58
2022/08/01 06:39:07;;;;;;;6.87;6.20;;;22.30;99.90;;;;;;4997583;28;20197;-60
2022/08/01 06:41:33;;;;;;;6.70;6.20;;;22.30;99.90;;;;;;5002246;28;20241;-59
2022/08/01 06:44:02;;;;;;;6.87;6.27;;;22.20;99.90;;;;;;5016880;28;20198;-58
2022/08/01 06:46:27;;;;;;;7.00;6.60;;;22.20;99.90;;;;;;5018615;28;20280;-58
2022/08/01 06:48:53;;;;;;;6.57;5.90;;;22.30;99.90;;;;;;5016005;28;20571;-58
2022/08/01 06:51:20;;;;;;;7.37;6.87;;;22.20;99.90;;;;;;5020591;28;20193;-58
2022/08/01 06:53:45;;;;;;;7.27;6.77;;;22.20;99.90;;;;;;5004213;28;20418;-56
2022/08/01 06:56:11;;;;;;;7.00;6.60;;;22.20;99.90;;;;;;5007773;28;20516;-59
2022/08/01 06:58:37;;;;;;;6.80;6.40;;;22.10;99.90;;;;;;5003438;28;20644;-57
2022/08/01 07:01:05;;;;;;;7.13;6.63;;;22.10;99.90;;;;;;5007858;28;20661;-57
2022/08/01 07:03:31;;;;;;;7.20;6.70;;;22.20;99.90;;;;;;5008114;28;20283;-57
2022/08/01 07:05:57;;;;;;;7.10;6.60;;;22.40;99.90;;;;;;5002781;28;20421;-57
2022/08/01 07:08:23;;;;;;;9.07;8.47;;;22.40;99.90;;;;;;5001359;28;20461;-59
2022/08/01 07:10:48;;;;;;;8.10;7.60;;;22.50;99.90;;;;;;5005836;28;20183;-59
2022/08/01 07:13:20;;;;;;;9.07;8.40;;;22.30;99.90;;;;;;5007112;28;20185;-58
2022/08/01 07:15:46;;;;;;;7.80;7.30;;;22.10;99.90;;;;;;5007207;28;20197;-58
2022/08/01 07:18:11;;;;;;;9.10;8.50;;;21.80;99.90;;;;;;5004523;28;20423;-59
2022/08/01 07:20:37;;;;;;;9.10;8.50;;;21.50;99.90;;;;;;5005953;28;21078;-56
2022/08/01 07:23:03;;;;;;;11.13;10.33;;;21.10;99.90;;;;;;5003490;28;20224;-57
2022/08/01 07:25:28;;;;;;;10.30;9.60;;;20.70;99.90;;;;;;5017910;28;20531;-58
2022/08/01 07:27:54;;;;;;;10.30;9.50;;;20.50;99.90;;;;;;5004027;28;20183;-58
2022/08/01 07:30:20;;;;;;;11.47;10.67;;;20.30;99.90;;;;;;5002071;28;20184;-58
2022/08/01 07:32:45;;;;;;;11.13;10.33;;;20.20;99.90;;;;;;5010224;28;20654;-57
2022/08/01 07:35:11;;;;;;;10.30;9.50;;;20.20;99.90;;;;;;5006947;28;20242;-57
2022/08/01 07:37:37;;;;;;;12.10;11.10;;;20.20;99.90;;;;;;5005553;28;20194;-58
2022/08/01 07:40:04;;;;;;;10.23;9.43;;;20.20;99.90;;;;;;5008180;28;20200;-58
2022/08/01 07:42:30;;;;;;;11.07;10.20;;;20.30;99.90;;;;;;5008034;28;20647;-58
2022/08/01 07:44:55;;;;;;;10.60;9.80;;;20.30;99.90;;;;;;5006006;28;20451;-58
2022/08/01 07:47:25;;;;;;;10.57;9.77;;;20.30;99.90;;;;;;5006967;28;20211;-56
2022/08/01 07:49:51;;;;;;;11.43;10.63;;;20.30;99.90;;;;;;5008027;28;20184;-57
2022/08/01 07:52:16;;;;;;;11.10;10.30;;;20.30;99.90;;;;;;5006274;28;20512;-58
2022/08/01 07:54:42;;;;;;;11.40;10.40;;;20.30;99.90;;;;;;5005566;28;20520;-58
2022/08/01 07:57:08;;;;;;;11.20;10.30;;;20.30;99.90;;;;;;5014139;28;20249;-57
2022/08/01 07:59:34;;;;;;;11.13;10.23;;;20.50;99.90;;;;;;5005598;28;20239;-57
2022/08/01 08:01:59;;;;;;;11.80;10.80;;;20.60;99.90;;;;;;5007596;28;20219;-52
2022/08/01 08:04:26;;;;;;;10.13;9.20;;;20.70;99.90;;;;;;5004701;28;20925;-55
2022/08/01 08:06:53;;;;;;;10.27;9.47;;;20.90;99.90;;;;;;5006163;28;20187;-57
2022/08/01 08:09:18;;;;;;;7.90;7.20;;;21.10;99.90;;;;;;5006599;28;20906;-55
2022/08/01 08:11:45;;;;;;;7.30;6.80;;;21.30;99.90;;;;;;5005898;28;20509;-56
2022/08/01 08:14:11;;;;;;;6.53;5.90;;;21.50;99.90;;;;;;5004156;28;20219;-52
2022/08/01 08:16:37;;;;;;;6.53;6.10;;;21.70;99.90;;;;;;4993884;28;20475;-56
2022/08/01 08:19:03;;;;;;;5.87;5.40;;;21.80;99.90;;;;;;5026404;28;20192;-57
2022/08/01 08:21:30;;;;;;;5.20;4.90;;;21.90;99.90;;;;;;5016656;28;20526;-56
2022/08/01 08:26:39;;;;;;;5.70;5.30;;;22.10;99.90;;;;;;5021035;28;20509;-56
2022/08/01 08:29:05;;;;;;;5.80;5.40;;;22.30;99.90;;;;;;5021778;28;20445;-58
2022/08/01 08:31:30;;;;;;;6.20;5.70;;;22.30;99.90;;;;;;5004436;28;20265;-55
2022/08/01 08:33:56;;;;;;;6.07;5.57;;;22.40;99.90;;;;;;5006160;28;20202;-55
2022/08/01 08:36:21;;;;;;;5.67;5.27;;;22.60;99.90;;;;;;5006686;28;20304;-58
2022/08/01 08:38:47;;;;;;;5.43;5.00;;;22.80;99.90;;;;;;5024929;28;20209;-57
2022/08/01 08:41:13;;;;;;;4.77;4.47;;;23.00;99.90;;;;;;5012665;28;20246;-57
2022/08/01 08:43:39;;;;;;;4.70;4.30;;;23.30;99.90;;;;;;5012036;28;20199;-58
2022/08/01 08:46:07;;;;;;;4.90;4.60;;;23.60;99.90;;;;;;5014125;28;21000;-58
2022/08/01 08:48:34;;;;;;;5.20;4.80;;;23.80;99.90;;;;;;5011553;28;20190;-57
2022/08/01 08:51:01;;;;;;;4.50;4.20;;;23.90;99.90;;;;;;5005965;28;20446;-56
2022/08/01 08:53:27;;;;;;;4.67;4.37;;;23.80;99.90;;;;;;5005103;28;20438;-57
2022/08/01 08:55:54;;;;;;;4.60;4.30;;;23.40;99.90;;;;;;5019036;28;20507;-56
2022/08/01 08:58:21;;;;;;;4.93;4.63;;;23.00;99.90;;;;;;5005562;28;20449;-58
2022/08/01 09:00:47;;;;;;;4.80;4.40;;;22.90;99.90;;;;;;5006559;28;20429;-57
2022/08/01 09:03:13;;;;;;;5.03;4.63;;;22.90;99.90;;;;;;5003368;28;20809;-55
2022/08/01 09:05:39;;;;;;;4.67;4.27;;;23.00;99.90;;;;;;4995931;28;20438;-57
2022/08/01 09:08:08;;;;;;;4.27;4.00;;;23.20;99.90;;;;;;5004237;28;20266;-57
2022/08/01 09:10:33;;;;;;;4.27;3.97;;;23.50;99.90;;;;;;5010301;28;20227;-56
2022/08/01 09:13:13;;;;;;;3.93;3.63;;;23.90;99.90;;;;;;5004265;28;21026;-57
2022/08/01 09:15:53;;;;;;;4.30;4.00;;;24.30;99.90;;;;;;5007873;28;20192;-57
2022/08/01 09:18:40;;;;;;;4.70;4.30;;;24.60;99.90;;;;;;5005032;28;20443;-58
2022/08/01 09:21:06;;;;;;;3.80;3.50;;;24.80;99.90;;;;;;5013404;28;20466;-57
2022/08/01 09:23:33;;;;;;;4.10;3.90;;;24.80;99.90;;;;;;5004557;28;20477;-58
2022/08/01 09:25:58;;;;;;;4.03;3.73;;;24.80;99.90;;;;;;5004855;28;20265;-54
2022/08/01 09:28:29;;;;;;;4.00;3.80;;;24.90;99.90;;;;;;5015641;28;20425;-56
2022/08/01 09:30:57;;;;;;;3.70;3.50;;;24.90;99.90;;;;;;4994246;28;20192;-55
2022/08/01 09:33:22;;;;;;;3.93;3.73;;;24.80;99.90;;;;;;5005245;28;20500;-57
2022/08/01 09:35:57;;;;;;;4.70;4.40;;;24.60;99.90;;;;;;5013305;28;20434;-57
2022/08/01 09:38:28;;;;;;;4.27;4.07;;;24.50;99.90;;;;;;5021860;28;20218;-58
2022/08/01 09:40:56;;;;;;;5.37;5.00;;;24.40;99.90;;;;;;5008664;28;20464;-58
2022/08/01 09:43:25;;;;;;;4.63;4.33;;;24.70;99.90;;;;;;5009326;28;20425;-58
2022/08/01 09:45:51;;;;;;;4.80;4.50;;;25.50;99.90;;;;;;5024023;28;20444;-58
2022/08/01 09:48:18;;;;;;;5.13;4.83;;;26.20;99.90;;;;;;5008859;28;20904;-55
2022/08/01 09:50:46;;;;;;;5.57;5.27;;;26.60;99.50;;;;;;5021688;28;21183;-57
2022/08/01 09:53:13;;;;;;;5.03;4.63;;;27.00;96.50;;;;;;5008365;28;20448;-56
2022/08/01 09:55:40;;;;;;;5.67;5.20;;;26.90;94.80;;;;;;5008226;28;20790;-55
2022/08/01 09:58:06;;;;;;;5.03;4.73;;;26.60;96.70;;;;;;5019402;28;20513;-55
2022/08/01 10:00:33;;;;;;;5.43;5.13;;;26.40;96.10;;;;;;5013533;28;20509;-57
2022/08/01 10:03:00;;;;;;;5.10;4.80;;;26.20;97.90;;;;;;5006933;28;20480;-56
2022/08/01 10:05:33;;;;;;;5.77;5.47;;;26.40;97.60;;;;;;5003131;28;20453;-57
2022/08/01 10:08:03;;;;;;;5.10;4.80;;;26.70;97.10;;;;;;5006170;28;20813;-57
2022/08/01 10:10:31;;;;;;;5.20;5.00;;;27.10;95.20;;;;;;5006804;28;20453;-58
2022/08/01 10:12:58;;;;;;;4.83;4.60;;;27.20;92.90;;;;;;5013326;28;20449;-57
2022/08/01 10:15:25;;;;;;;5.57;5.27;;;27.10;92.00;;;;;;5027943;28;20440;-55
2022/08/01 10:17:56;;;;;;;5.27;4.97;;;27.00;92.30;;;;;;5017126;28;20455;-53
2022/08/01 10:20:28;;;;;;;5.57;5.27;;;26.60;92.90;;;;;;5022108;28;21189;-59
2022/08/01 10:22:57;;;;;;;5.20;4.90;;;26.30;93.60;;;;;;5010124;28;20612;-57
2022/08/01 10:25:24;;;;;;;5.30;5.00;;;26.30;94.00;;;;;;5006589;28;20448;-58
2022/08/01 10:27:54;;;;;;;4.80;4.60;;;26.40;94.30;;;;;;5007444;28;20490;-58
2022/08/01 10:30:21;;;;;;;5.00;4.80;;;26.30;94.00;;;;;;5007864;28;20432;-58
2022/08/01 10:32:47;;;;;;;4.90;4.70;;;26.30;93.50;;;;;;5015780;28;20448;-59
2022/08/01 10:35:16;;;;;;;4.73;4.53;;;26.40;93.70;;;;;;5002162;28;20433;-57
2022/08/01 10:37:46;;;;;;;4.20;4.00;;;26.50;93.00;;;;;;4996193;28;20492;-58
2022/08/01 10:40:15;;;;;;;4.67;4.47;;;26.80;91.80;;;;;;5008684;28;20506;-56
2022/08/01 10:42:45;;;;;;;5.27;4.97;;;26.90;91.80;;;;;;5008705;28;20633;-55
2022/08/01 10:45:14;;;;;;;4.97;4.57;;;27.10;91.80;;;;;;5008929;28;20459;-57
2022/08/01 10:47:55;;;;;;;4.70;4.50;;;27.10;91.70;;;;;;5016597;28;20445;-58
2022/08/01 10:50:39;;;;;;;4.80;4.50;;;27.10;91.40;;;;;;5011182;28;20589;-52
2022/08/01 10:53:14;;;;;;;4.43;4.03;;;26.90;91.80;;;;;;4999908;28;20451;-56
2022/08/01 10:55:55;;;;;;;4.20;4.00;;;26.80;92.10;;;;;;5025791;28;20437;-54
2022/08/01 10:58:25;;;;;;;5.50;5.00;;;26.40;92.90;;;;;;5008785;28;20444;-57
2022/08/01 11:01:15;;;;;;;3.87;3.67;;;26.10;93.60;;;;;;5009856;28;20439;-58
2022/08/01 11:03:43;;;;;;;4.20;4.00;;;26.00;94.90;;;;;;5010227;28;20432;-58
2022/08/01 11:06:23;;;;;;;4.20;3.90;;;25.80;96.70;;;;;;5011361;28;20435;-55
2022/08/01 11:08:54;;;;;;;4.37;4.17;;;25.50;98.60;;;;;;5029948;28;20423;-54
2022/08/01 11:11:21;;;;;;;4.53;4.23;;;25.10;99.90;;;;;;5012775;28;20474;-57
2022/08/01 11:14:09;;;;;;;4.27;3.97;;;24.90;99.90;;;;;;5009151;28;20805;-56
2022/08/01 11:16:36;;;;;;;3.93;3.63;;;24.90;99.90;;;;;;5010258;28;20426;-58
2022/08/01 11:19:06;;;;;;;3.40;3.20;;;25.00;99.90;;;;;;5008891;28;20443;-55
2022/08/01 11:21:54;;;;;;;3.23;3.03;;;25.30;99.90;;;;;;5007508;28;20485;-59
2022/08/01 11:24:48;;;;;;;3.60;3.40;;;25.50;99.10;;;;;;5004900;28;20443;-59
2022/08/01 11:27:21;;;;;;;3.43;3.23;;;26.10;97.00;;;;;;5010867;28;20429;-58
2022/08/01 11:30:05;;;;;;;3.30;3.13;;;26.60;95.80;;;;;;5007666;28;20412;-57
2022/08/01 11:32:31;;;;;;;3.20;3.00;;;27.30;94.60;;;;;;5005786;28;20896;-57
2022/08/01 11:34:57;;;;;;;2.83;2.63;;;28.50;91.20;;;;;;5008860;28;20426;-57
2022/08/01 11:37:27;;;;;;;2.70;2.60;;;29.60;82.40;;;;;;5010244;28;20182;-57
2022/08/01 11:40:14;;;;;;;2.50;2.40;;;30.10;77.80;;;;;;5007509;28;20183;-58
2022/08/01 11:42:40;;;;;;;2.80;2.70;;;30.50;74.10;;;;;;5006671;28;20561;-56
2022/08/01 11:45:09;;;;;;;3.00;2.90;;;31.20;70.50;;;;;;5007887;28;20526;-58
2022/08/01 11:47:51;;;;;;;3.00;2.90;;;31.50;64.00;;;;;;5004193;28;20183;-57
2022/08/01 11:50:28;;;;;;;3.10;3.00;;;31.20;60.90;;;;;;5006716;28;20423;-58
2022/08/01 11:52:59;;;;;;;2.83;2.63;;;30.50;62.90;;;;;;5007654;28;20432;-59
2022/08/01 11:55:26;;;;;;;2.77;2.67;;;29.60;66.00;;;;;;5011597;28;20428;-53
2022/08/01 11:58:00;;;;;;;3.13;2.90;;;29.10;69.60;;;;;;5008523;28;20421;-58
2022/08/01 12:00:25;;;;;;;7.10;6.70;;;28.80;71.80;;;;;;4999881;28;20466;-58
2022/08/01 12:03:02;;;;;;;11.13;9.90;;;28.10;88.80;;;;;;4994381;28;21179;-52
2022/08/01 12:05:29;;;;;;;7.70;7.10;;;26.70;99.90;;;;;;4992268;28;20276;-55
2022/08/01 12:07:56;;;;;;;7.07;6.50;;;25.30;99.90;;;;;;5026912;28;20413;-54
2022/08/01 12:10:24;;;;;;;6.10;5.60;;;24.30;99.90;;;;;;5021800;28;20664;-56
2022/08/01 12:12:59;;;;;;;5.50;5.20;;;23.80;99.90;;;;;;5001350;28;20431;-55
2022/08/01 12:15:30;;;;;;;4.70;4.30;;;23.30;99.90;;;;;;5007181;28;20501;-55
2022/08/01 12:17:57;;;;;;;3.60;3.40;;;23.00;99.90;;;;;;5008370;28;20507;-52
2022/08/01 12:20:25;;;;;;;3.90;3.60;;;22.90;99.90;;;;;;5009970;28;20433;-52
2022/08/01 12:23:01;;;;;;;3.30;3.10;;;22.90;99.90;;;;;;5022557;28;20470;-48
2022/08/01 12:25:27;;;;;;;4.23;2.73;;;23.50;99.90;;;;;;5021901;28;20504;-50
2022/08/01 12:27:53;;;;;;;2.93;2.73;;;24.50;99.90;;;;;;5004563;28;20598;-48
2022/08/01 12:30:28;;;;;;;2.20;2.00;;;25.40;99.90;;;;;;5018139;28;20236;-50
2022/08/01 12:32:54;;;;;;;2.60;2.50;;;26.60;99.90;;;;;;5012883;28;20193;-54
2022/08/01 12:35:24;;;;;;;2.97;2.77;;;28.00;99.90;;;;;;5022424;28;21178;-52
2022/08/01 12:37:54;;;;;;;2.97;2.87;;;29.10;99.90;;;;;;5024228;28;20434;-54
2022/08/01 12:40:23;;;;;;;3.67;3.40;;;29.90;99.90;;;;;;5005997;28;20464;-54
2022/08/01 12:42:51;;;;;;;6.90;3.50;;;29.90;95.30;;;;;;5008711;28;20565;-52
2022/08/01 12:45:24;;;;;;;3.87;3.67;;;29.70;94.40;;;;;;5016918;28;20421;-54
2022/08/01 12:47:52;;;;;;;3.43;3.00;;;29.60;96.80;;;;;;5014700;28;20457;-55
2022/08/01 12:50:20;;;;;;;3.60;3.40;;;29.90;99.90;;;;;;5026838;28;20418;-53
2022/08/01 12:52:47;;;;;;;3.63;3.00;;;30.70;98.10;;;;;;5019772;28;20451;-55
2022/08/01 12:55:17;;;;;;;3.97;3.67;;;31.70;93.90;;;;;;5017506;28;20493;-55
2022/08/01 12:57:49;;;;;;;4.27;4.07;;;32.10;88.80;;;;;;5011886;28;20445;-51